• Join FlightAware (Why Join?)
  • Login
  • US Flag GB Flag 
04:56 EDT


 

Airport Tracker/Info


-or-


 

Live Flight TrackerFlight Track Log ✈ CPT8773 ✈ 03-Oct-2013 ✈ KCPR - KCOD

Flight Track Log - Related Links

Times and Time Zones

All times are in EDT time to prevent confusion due to time zone crossing. See the CPT8773 flight status page for this flight to view local times or setup timezone preferences in your user account.

Time Position Orientation Groundspeed Altitude Reporting Facility
EDT Latitude Longitude Course Direction KTS MPH feet Rate Location/Type
09:05 42.9931 -106.4708 347° North 110 127 7,400  Level Denver Center
09:06 43.0219 -106.4772 351° North 110 127 7,800 540 Climbing Denver Center
09:07 43.0572 -106.4881 347° North 113 130 8,500 480 Climbing Denver Center
09:08 43.0452 -106.6735 307° West  Level Estimated
09:08 43.0883 -106.4978 347° North 115 132 8,800  Level Denver Center
09:09 43.0853 -106.6857 347° North  Level FlightAware Approximate
09:09 43.1281 -106.5053 352° North 122 140 9,400  Level Denver Center
09:10 43.1254 -106.6980 347° North  Level FlightAware Approximate
09:10 43.1622 -106.5114 353° North 125 144 9,700  Level Denver Center
09:11 43.1972 -106.5164 354° North 128 147 10,000 300 Climbing Denver Center
09:12 43.2397 -106.5258 351° North 133 153 10,400 300 Climbing Denver Center
09:13 43.2614 -106.5556 315° West 144 166 10,700 240 Climbing Denver Center
09:14 43.2772 -106.5983 297° West 135 155 10,900 180 Climbing Denver Center
09:15 43.2964 -106.6489 298° West 134 154 11,100 180 Climbing Denver Center
09:16 43.3156 -106.6908 302° West 136 157 11,300 180 Climbing Denver Center
09:17 43.3311 -106.7375 295° West 138 159 11,500 120 Climbing Denver Center
09:18 43.3558 -106.7858 305° West 138 159 11,600 120 Climbing Salt Lake Center
09:19 43.3781 -106.8269 307° West 140 161 11,800 180 Climbing Salt Lake Center
09:20 43.4031 -106.8758 305° West 140 161 12,000 60 Climbing Salt Lake Center
09:21 43.4256 -106.9186 306° West 143 165 12,000 -60 Level Salt Lake Center
09:22 43.4486 -106.9614 307° West 148 170 11,900  Descending Salt Lake Center
09:23 43.4739 -107.0053 308° West 148 170 12,000  Climbing Salt Lake Center
09:24 43.4967 -107.0494 305° West 143 165 12,000  Level Salt Lake Center
09:25 43.5247 -107.1061 304° West 147 169 12,000  Level Salt Lake Center
09:26 43.5492 -107.1525 306° West 149 171 12,000  Level Salt Lake Center
09:27 43.5733 -107.1958 308° West 146 168 12,000  Level Salt Lake Center
09:28 43.5969 -107.2406 306° West 145 167 12,000  Level Salt Lake Center
09:29 43.6208 -107.2864 306° West 145 167 12,000  Level Salt Lake Center
09:30 43.6439 -107.3319 305° West 146 168 12,000  Level Salt Lake Center
09:31 43.6664 -107.3769 305° West 144 166 12,000  Level Salt Lake Center
09:32 43.6875 -107.4225 303° West 143 165 12,000  Level Salt Lake Center
09:33 43.7108 -107.4661 307° West 142 163 12,000  Level Salt Lake Center
09:34 43.7342 -107.5119 305° West 143 165 12,000 -120 Level Salt Lake Center
09:35 43.7583 -107.5581 306° West 145 167 11,800 -240 Descending Salt Lake Center
09:36 43.7894 -107.6153 307° West 150 173 11,600 -240 Descending Salt Lake Center
09:37 43.8139 -107.6628 306° West 152 175 11,400 -300 Descending Salt Lake Center
09:38 43.8383 -107.7097 306° West 151 174 11,100 -300 Descending Salt Lake Center
09:39 43.8625 -107.7564 306° West 151 174 10,800 -300 Descending Salt Lake Center
09:40 43.8869 -107.8042 305° West 151 174 10,600 -180 Descending Salt Lake Center
09:41 43.9122 -107.8525 306° West 153 176 10,500 -60 Descending Salt Lake Center
09:42 43.9344 -107.8992 303° West 150 173 10,500  Level Salt Lake Center
09:43 43.9561 -107.9450 303° West 147 169 10,500  Level Salt Lake Center
09:44 43.9828 -107.9886 310° West 147 169 10,500  Level Salt Lake Center
09:45 44.0119 -108.0303 314° West 148 170 10,500  Level Salt Lake Center
09:46 44.0472 -108.0836 313° West 152 175 10,500  Level Salt Lake Center
09:47 44.0758 -108.1278 312° West 153 176 10,500  Level Salt Lake Center
09:48 44.1036 -108.1714 312° West 153 176 10,500  Level Salt Lake Center
09:49 44.1322 -108.2133 314° West 151 174 10,500  Level Salt Lake Center
09:51 44.1606 -108.2561 313° West 151 174 10,500  Level Salt Lake Center
09:52 44.1894 -108.3006 312° West 152 175 10,500  Level Salt Lake Center
09:53 44.2169 -108.3458 310° West 152 175 10,500  Level Salt Lake Center
09:54 44.2456 -108.3889 313° West 152 175 10,500  Level Salt Lake Center
09:55 44.2742 -108.4333 312° West 153 176 10,500  Level Salt Lake Center
09:56 44.3033 -108.4764 313° West 153 176 10,500  Level Salt Lake Center
09:57 44.3403 -108.5250 317° Northwest 153 176 10,500 -180 Level Salt Lake Center
09:58 44.3828 -108.5461 340° North 158 182 10,200 -300 Descending Salt Lake Center
09:59 44.4250 -108.5733 335° Northwest 162 186 9,900 -360 Descending Salt Lake Center
10:00 44.4689 -108.6008 336° Northwest 167 192 9,500 -480 Descending Salt Lake Center
10:01 44.5142 -108.6300 335° Northwest 172 198 9,000 -300 Descending Salt Lake Center
10:02 44.5564 -108.6589 334° Northwest 172 198 9,000 -120 Level Salt Lake Center
10:03 44.5939 -108.6900 329° Northwest 166 191 8,800 -360 Descending Salt Lake Center
10:04 44.6286 -108.7278 322° Northwest 162 186 8,300 -420 Descending Salt Lake Center
10:05 44.6517 -108.7719 306° West 164 189 8,000 -360 Descending Salt Lake Center
10:06 44.6317 -108.8300 244° Southwest 147 169 7,600 -300 Descending Salt Lake Center
10:07 44.6050 -108.8753 230° Southwest 147 169 7,500 -360 Descending Salt Lake Center
10:08 44.5797 -108.9192 231° Southwest 147 169 6,900 -780 Descending Salt Lake Center
10:09 44.5550 -108.9639 232° Southwest 145 167 6,000 -600 Descending Salt Lake Center
10:10 44.5325 -109.0036 232° Southwest 145 167 5,700 -300 Descending Salt Lake Center